Time;durP1;ratioP1;P1;durP2;ratioP2;P2;SDS_P1;SDS_P2;PMS_P1;PMS_P2;Temp;Humidity;BMP_temperature;BMP_pressure;BME280_temperature;BME280_humidity;BME280_pressure;Samples;Min_cycle;Max_cycle;Signal;HPM_P1;HPM_P2
2022/04/27 00:01:15;;;;;;;10.70;5.07;;;;;;;38.78;39.92;100804.06;6248502;22;20496;-71
2022/04/27 00:03:42;;;;;;;14.97;6.40;;;;;;;38.76;39.61;100803.59;6248713;22;20368;-71
2022/04/27 00:06:09;;;;;;;15.70;6.47;;;;;;;38.78;39.80;100795.94;6248274;22;20409;-72
2022/04/27 00:09:00;;;;;;;13.07;5.00;;;;;;;38.82;39.69;100796.91;6248343;22;20385;-73
2022/04/27 00:11:26;;;;;;;10.27;5.70;;;;;;;38.80;39.90;100789.09;6248234;22;20377;-72
2022/04/27 00:13:52;;;;;;;16.30;6.70;;;;;;;38.78;40.02;100785.88;6247922;22;20428;-71
2022/04/27 00:16:18;;;;;;;19.60;6.07;;;;;;;38.84;39.69;100781.91;6248245;22;20464;-72
2022/04/27 00:18:44;;;;;;;13.20;5.03;;;;;;;38.83;39.65;100779.53;6248303;22;20421;-71
2022/04/27 00:21:11;;;;;;;12.63;5.27;;;;;;;38.86;39.87;100778.91;6247919;22;20421;-71
2022/04/27 00:23:37;;;;;;;15.23;6.03;;;;;;;38.80;39.85;100772.84;6275498;22;20354;-71
2022/04/27 00:26:03;;;;;;;15.50;6.63;;;;;;;38.80;39.94;100772.84;6248171;22;20464;-72
2022/04/27 00:28:29;;;;;;;22.73;7.63;;;;;;;38.81;40.11;100770.91;6275065;22;20484;-72
2022/04/27 00:30:55;;;;;;;30.10;7.50;;;;;;;38.80;40.18;100766.63;6248087;22;20439;-72
2022/04/27 00:33:22;;;;;;;14.50;6.10;;;;;;;38.75;39.72;100772.97;6247736;22;20416;-72
2022/04/27 00:35:48;;;;;;;15.43;5.77;;;;;;;38.77;39.98;100768.03;6248094;22;20386;-72
2022/04/27 00:38:14;;;;;;;11.77;6.00;;;;;;;38.64;40.61;100767.00;6247847;22;20451;-71
2022/04/27 00:40:40;;;;;;;14.53;6.57;;;;;;;38.56;41.09;100770.47;6247899;22;20979;-72
2022/04/27 00:43:06;;;;;;;17.03;5.20;;;;;;;38.56;41.00;100761.56;6247767;22;20381;-72
2022/04/27 00:45:32;;;;;;;25.47;7.40;;;;;;;38.56;40.80;100754.22;6247805;22;20399;-72
2022/04/27 00:47:59;;;;;;;15.83;6.20;;;;;;;38.56;41.49;100748.00;6248049;22;20381;-71
2022/04/27 00:50:25;;;;;;;14.77;8.00;;;;;;;38.54;41.23;100751.00;6247979;22;20837;-71
2022/04/27 00:52:52;;;;;;;14.37;5.07;;;;;;;38.58;41.08;100749.28;6247833;22;20861;-73
2022/04/27 00:55:18;;;;;;;13.47;6.37;;;;;;;38.48;41.31;100754.97;6274959;22;20437;-71
2022/04/27 00:57:47;;;;;;;13.63;5.07;;;;;;;38.54;41.42;100756.44;6247920;22;20374;-72
2022/04/27 01:00:15;;;;;;;18.20;5.50;;;;;;;38.54;41.51;100748.28;6274915;22;20406;-70
2022/04/27 01:02:42;;;;;;;12.33;5.90;;;;;;;38.48;41.65;100754.97;6247937;22;20388;-73
2022/04/27 01:05:11;;;;;;;11.63;5.60;;;;;;;38.53;41.51;100756.75;6275229;22;20845;-71
2022/04/27 01:07:39;;;;;;;17.87;7.40;;;;;;;38.55;41.75;100755.34;6275114;22;20354;-71
2022/04/27 01:10:07;;;;;;;12.83;4.50;;;;;;;38.55;41.49;100744.50;6247767;22;20443;-72
2022/04/27 01:12:34;;;;;;;19.50;6.60;;;;;;;38.60;41.52;100747.03;6247861;22;20849;-73
2022/04/27 01:15:00;;;;;;;12.87;6.83;;;;;;;38.60;41.63;100748.94;6275008;22;20354;-71
2022/04/27 01:17:26;;;;;;;20.13;5.20;;;;;;;38.54;41.62;100748.28;6222758;22;20373;-71
2022/04/27 01:19:52;;;;;;;12.10;7.90;;;;;;;38.59;41.71;100742.75;6247778;22;20425;-71
2022/04/27 01:22:19;;;;;;;12.53;6.40;;;;;;;38.54;41.78;100740.16;6222755;22;20374;-71
2022/04/27 01:24:46;;;;;;;13.93;4.40;;;;;;;38.58;41.56;100737.63;6275061;22;20354;-72
2022/04/27 01:27:12;;;;;;;12.03;4.57;;;;;;;38.48;41.69;100736.00;6247693;22;20401;-72
2022/04/27 01:29:38;;;;;;;17.67;7.90;;;;;;;38.52;41.87;100742.41;6275076;22;20421;-72
2022/04/27 01:32:05;;;;;;;14.83;5.83;;;;;;;38.45;41.95;100739.34;6247851;22;20404;-71
2022/04/27 01:34:31;;;;;;;18.40;6.53;;;;;;;38.38;41.60;100733.56;6247737;22;20386;-71
2022/04/27 01:37:59;;;;;;;13.53;7.10;;;;;;;38.41;41.93;100732.94;6247728;22;20382;-71
2022/04/27 01:39:43;;;;;;;14.40;6.40;;;;;;;38.35;41.57;100734.97;6274017;22;20909;-71
2022/04/27 01:42:10;;;;;;;15.23;5.23;;;;;;;38.41;41.91;100739.16;6247642;22;20378;-72
2022/04/27 01:44:37;;;;;;;19.47;6.70;;;;;;;38.42;41.67;100732.63;6247534;22;20382;-71
2022/04/27 01:47:03;;;;;;;18.73;6.00;;;;;;;38.42;41.72;100731.81;6247729;22;20794;-72
2022/04/27 01:49:29;;;;;;;10.00;4.97;;;;;;;38.45;41.73;100728.50;6247642;22;20444;-73
2022/04/27 01:54:41;;;;;;;12.60;6.50;;;;;;;38.39;41.93;100727.03;6274557;22;20825;-72
2022/04/27 01:57:07;;;;;;;10.93;6.07;;;;;;;38.39;41.52;100727.84;6247476;22;20444;-71
2022/04/27 01:59:34;;;;;;;18.77;6.57;;;;;;;38.31;41.42;100720.47;6247509;22;20944;-71
2022/04/27 02:02:00;;;;;;;18.63;7.60;;;;;;;38.36;41.77;100722.22;6247476;22;20446;-72
2022/04/27 02:04:27;;;;;;;11.03;5.50;;;;;;;38.36;41.34;100723.03;6247631;22;20384;-72
2022/04/27 02:06:53;;;;;;;17.10;7.30;;;;;;;38.36;41.65;100717.59;6247533;22;20493;-71
2022/04/27 02:09:19;;;;;;;15.30;6.60;;;;;;;38.50;41.29;100714.81;6247450;22;20431;-71
2022/04/27 02:11:45;;;;;;;19.07;5.17;;;;;;;38.49;41.28;100715.09;6247751;22;20388;-71
2022/04/27 02:14:12;;;;;;;14.80;6.30;;;;;;;38.44;41.38;100718.78;6249332;22;20841;-71
2022/04/27 02:16:38;;;;;;;23.50;8.50;;;;;;;38.51;41.35;100715.63;6249492;22;20381;-71
2022/04/27 02:19:04;;;;;;;19.57;7.30;;;;;;;38.46;41.71;100710.31;6249116;22;20432;-71
2022/04/27 02:21:31;;;;;;;16.03;5.63;;;;;;;38.36;41.57;100714.91;6224324;22;20435;-72
2022/04/27 02:23:57;;;;;;;18.07;6.43;;;;;;;38.32;40.90;100705.03;6249413;22;20382;-71
2022/04/27 02:26:23;;;;;;;11.10;5.23;;;;;;;38.18;41.13;100705.91;6249191;22;20377;-72
2022/04/27 02:28:50;;;;;;;20.47;4.50;;;;;;;38.25;41.25;100694.59;6276668;22;20404;-71
2022/04/27 02:31:16;;;;;;;17.90;7.80;;;;;;;38.24;41.42;100694.91;6249370;22;20385;-71
2022/04/27 02:33:43;;;;;;;13.70;6.03;;;;;;;38.15;41.45;100690.25;6276566;22;20922;-72
2022/04/27 02:36:09;;;;;;;12.07;5.53;;;;;;;38.24;41.31;100694.91;6249323;22;20373;-72
2022/04/27 02:38:35;;;;;;;13.10;5.90;;;;;;;38.30;41.25;100696.38;6276613;22;20366;-71
2022/04/27 02:41:03;;;;;;;18.00;7.10;;;;;;;38.38;41.31;100692.94;6249029;22;20763;-72
2022/04/27 02:43:31;;;;;;;20.60;7.53;;;;;;;38.43;41.13;100695.50;6249121;22;20489;-71
2022/04/27 02:45:58;;;;;;;14.73;6.20;;;;;;;38.38;41.67;100685.59;6249266;22;20389;-71
2022/04/27 02:48:24;;;;;;;18.07;7.60;;;;;;;38.35;41.87;100686.22;6248973;22;20763;-72
2022/04/27 02:53:38;;;;;;;14.97;6.90;;;;;;;38.09;41.78;100682.56;6276375;22;20353;-71
2022/04/27 02:56:04;;;;;;;26.07;9.73;;;;;;;37.99;42.40;100683.63;6228954;22;20442;-72
2022/04/27 02:58:31;;;;;;;21.43;6.20;;;;;;;37.92;42.24;100680.56;6218593;23;20705;-72
2022/04/27 03:00:57;;;;;;;17.83;6.10;;;;;;;37.89;42.27;100673.06;6218662;23;20390;-73
2022/04/27 03:03:23;;;;;;;21.90;6.80;;;;;;;37.87;42.11;100680.69;6218511;23;20379;-72
2022/04/27 03:05:49;;;;;;;20.63;7.63;;;;;;;37.74;42.42;100674.22;6218622;23;20405;-72
2022/04/27 03:08:16;;;;;;;19.97;10.73;;;;;;;37.69;43.39;100679.78;6218674;23;20389;-71
2022/04/27 03:10:42;;;;;;;21.63;5.13;;;;;;;37.94;41.83;100669.41;6245542;23;20350;-71
2022/04/27 03:13:08;;;;;;;15.53;7.70;;;;;;;38.03;42.23;100662.94;6218514;23;20402;-71
2022/04/27 03:15:34;;;;;;;23.80;9.20;;;;;;;38.06;42.41;100658.81;6245301;23;20702;-71
2022/04/27 03:18:21;;;;;;;22.10;8.23;;;;;;;37.77;43.04;100656.56;6218550;23;20902;-72
2022/04/27 03:20:49;;;;;;;18.40;7.17;;;;;;;38.13;42.25;100672.72;6218276;23;20438;-72
2022/04/27 03:23:16;;;;;;;13.43;5.30;;;;;;;38.12;41.58;100665.69;6245196;23;20359;-72
2022/04/27 03:25:43;;;;;;;21.50;7.47;;;;;;;38.12;42.21;100673.81;6218391;23;20397;-72
2022/04/27 03:28:10;;;;;;;14.63;5.20;;;;;;;37.81;42.18;100663.81;6245405;23;20355;-72
2022/04/27 03:30:36;;;;;;;21.30;7.30;;;;;;;37.75;42.57;100653.34;6244998;23;20398;-71
2022/04/27 03:33:02;;;;;;;19.30;6.43;;;;;;;37.82;42.33;100659.19;6218248;23;20383;-72
2022/04/27 03:35:28;;;;;;;27.37;9.30;;;;;;;37.69;42.24;100658.13;6217911;23;20389;-72
2022/04/27 03:37:55;;;;;;;18.00;6.30;;;;;;;37.69;42.58;100650.00;6218351;23;20382;-71
2022/04/27 03:40:22;;;;;;;21.43;6.57;;;;;;;37.74;42.77;100657.97;6218271;23;21279;-72
2022/04/27 03:42:48;;;;;;;23.83;8.80;;;;;;;37.62;43.15;100663.16;6218117;23;20909;-71
2022/04/27 03:45:15;;;;;;;15.93;5.63;;;;;;;37.52;42.84;100674.25;6218263;23;20391;-72
2022/04/27 03:47:41;;;;;;;16.87;6.00;;;;;;;37.33;43.47;100658.97;6245142;23;20363;-72
2022/04/27 03:50:07;;;;;;;19.40;6.60;;;;;;;37.41;43.85;100657.44;6218200;23;20381;-72
2022/04/27 03:52:34;;;;;;;21.00;7.67;;;;;;;37.58;43.38;100660.28;6245144;23;20351;-71
2022/04/27 03:55:00;;;;;;;29.77;8.57;;;;;;;37.69;42.89;100663.53;6217920;23;20885;-71
2022/04/27 03:57:27;;;;;;;17.33;6.50;;;;;;;37.44;42.98;100669.56;6218201;23;20371;-72
2022/04/27 03:59:54;;;;;;;16.80;8.17;;;;;;;37.48;43.21;100660.53;6217870;23;20457;-72
2022/04/27 04:02:21;;;;;;;15.93;6.87;;;;;;;37.48;42.91;100663.22;6218081;23;20378;-71
2022/04/27 04:04:47;;;;;;;15.10;5.80;;;;;;;37.32;42.96;100668.19;6218065;23;20427;-72
2022/04/27 04:07:13;;;;;;;17.03;6.70;;;;;;;37.43;43.54;100676.88;6217952;23;20385;-71
2022/04/27 04:09:40;;;;;;;27.17;10.33;;;;;;;37.45;43.88;100680.09;6218119;23;20374;-72
2022/04/27 04:12:07;;;;;;;17.50;8.00;;;;;;;37.49;42.85;100672.94;6217887;23;20461;-72
2022/04/27 04:14:33;;;;;;;19.53;8.50;;;;;;;37.57;42.83;100661.41;6218004;23;20375;-72
2022/04/27 04:17:00;;;;;;;17.37;7.47;;;;;;;37.29;42.87;100659.88;6217084;23;20383;-72
2022/04/27 04:19:26;;;;;;;18.27;7.57;;;;;;;37.21;43.77;100661.41;6217654;23;20813;-70
2022/04/27 04:21:52;;;;;;;16.73;4.73;;;;;;;37.22;43.05;100662.22;6244930;23;20370;-71
2022/04/27 04:24:18;;;;;;;21.23;8.47;;;;;;;37.41;43.26;100673.69;6217811;23;20855;-72
2022/04/27 04:29:31;;;;;;;21.53;5.27;;;;;;;37.46;42.74;100670.88;6244772;23;20493;-72
2022/04/27 04:31:57;;;;;;;16.23;6.60;;;;;;;37.42;43.49;100672.56;6244851;23;20499;-72
2022/04/27 04:34:24;;;;;;;18.07;7.10;;;;;;;37.67;42.82;100684.69;6217293;23;20375;-73
2022/04/27 04:36:50;;;;;;;15.93;5.93;;;;;;;37.52;43.01;100690.47;6217873;23;20382;-73
2022/04/27 04:39:16;;;;;;;22.03;9.63;;;;;;;37.56;43.03;100689.53;6244627;23;20406;-71
2022/04/27 04:41:42;;;;;;;25.37;10.40;;;;;;;37.43;43.83;100690.41;6244590;23;20362;-71
2022/04/27 04:44:09;;;;;;;18.27;6.47;;;;;;;37.52;42.90;100695.91;6217476;23;20890;-71
2022/04/27 04:46:35;;;;;;;14.00;6.77;;;;;;;37.59;43.04;100705.19;6217687;23;20386;-73
2022/04/27 04:49:01;;;;;;;25.73;8.63;;;;;;;37.35;43.80;100705.47;6217661;23;20734;-72
2022/04/27 04:51:27;;;;;;;21.87;6.00;;;;;;;37.20;43.73;100708.50;6217497;23;20406;-71
2022/04/27 04:53:54;;;;;;;21.43;8.30;;;;;;;37.32;43.72;100716.06;6217415;23;20378;-71
2022/04/27 04:56:21;;;;;;;13.67;8.00;;;;;;;37.43;43.87;100703.13;6217435;23;20934;-72
2022/04/27 04:58:47;;;;;;;28.80;7.70;;;;;;;37.69;43.28;100711.44;6217419;23;20444;-72
2022/04/27 05:01:13;;;;;;;24.73;11.20;;;;;;;37.48;43.68;100720.06;6217651;23;20389;-73
2022/04/27 05:03:40;;;;;;;17.30;6.70;;;;;;;37.44;43.89;100720.97;6217340;23;20417;-71
2022/04/27 05:06:06;;;;;;;23.00;6.60;;;;;;;37.55;43.39;100708.78;6217531;23;20735;-70
2022/04/27 05:08:32;;;;;;;25.50;7.17;;;;;;;37.49;43.74;100721.66;6217486;23;20528;-71
2022/04/27 05:10:58;;;;;;;20.97;8.60;;;;;;;37.42;43.79;100725.88;6217290;23;20409;-71
2022/04/27 05:13:25;;;;;;;18.60;8.60;;;;;;;37.58;43.34;100714.41;6244729;23;20355;-71
2022/04/27 05:15:51;;;;;;;21.50;6.70;;;;;;;37.55;43.31;100719.63;6217562;23;20742;-71
2022/04/27 05:18:20;;;;;;;25.20;8.23;;;;;;;37.35;43.80;100716.28;6217421;23;20394;-71
2022/04/27 05:20:46;;;;;;;17.10;8.07;;;;;;;37.32;44.01;100708.78;6217371;23;20472;-71
2022/04/27 05:23:12;;;;;;;13.63;6.50;;;;;;;37.40;43.02;100707.25;6244396;23;20374;-72
2022/04/27 05:25:38;;;;;;;14.93;7.87;;;;;;;37.42;43.70;100705.03;6244403;23;20846;-72
2022/04/27 05:28:05;;;;;;;16.33;7.93;;;;;;;37.33;44.04;100707.66;6217310;23;20393;-74
2022/04/27 05:33:23;;;;;;;15.07;6.33;;;;;;;37.53;43.49;100698.28;6201107;23;20401;-73
2022/04/27 05:35:50;;;;;;;21.30;9.00;;;;;;;37.55;43.35;100696.06;6217397;23;20382;-73
2022/04/27 05:38:16;;;;;;;17.07;7.67;;;;;;;37.59;43.28;100691.66;6244128;23;20402;-72
2022/04/27 05:40:43;;;;;;;21.97;9.20;;;;;;;37.63;43.57;100703.47;6217242;23;20430;-72
2022/04/27 05:43:12;;;;;;;25.20;8.47;;;;;;;37.78;43.30;100712.31;6217232;23;20393;-72
2022/04/27 05:45:38;;;;;;;22.23;7.67;;;;;;;37.45;43.86;100715.25;6244314;23;20359;-73
2022/04/27 05:48:05;;;;;;;14.07;7.10;;;;;;;37.48;43.73;100709.22;6219238;23;20382;-73
2022/04/27 05:50:34;;;;;;;30.67;9.60;;;;;;;37.53;44.08;100711.81;6219432;23;20524;-72
2022/04/27 05:53:01;;;;;;;21.83;7.83;;;;;;;37.60;44.08;100716.81;6219379;23;20386;-72
2022/04/27 05:55:27;;;;;;;22.03;6.83;;;;;;;37.78;44.02;100733.97;6219165;23;20446;-73
2022/04/27 05:57:53;;;;;;;21.80;7.23;;;;;;;37.80;43.58;100737.16;6219130;23;20386;-72
2022/04/27 06:00:20;;;;;;;31.53;9.97;;;;;;;37.91;43.43;100738.53;6219131;23;20772;-72
2022/04/27 06:02:46;;;;;;;19.17;7.67;;;;;;;37.87;43.64;100732.94;6219286;23;20383;-72
2022/04/27 06:05:12;;;;;;;18.63;7.53;;;;;;;37.67;43.44;100752.34;6245093;23;20897;-72
2022/04/27 06:07:39;;;;;;;19.67;9.10;;;;;;;37.83;44.03;100748.22;6219327;23;20382;-72
2022/04/27 06:10:07;;;;;;;25.10;11.47;;;;;;;37.86;43.84;100765.75;6245991;23;20698;-73
2022/04/27 06:12:47;;;;;;;26.73;10.63;;;;;;;37.83;44.41;100769.06;6219265;23;20390;-73
2022/04/27 06:15:15;;;;;;;23.70;10.20;;;;;;;37.89;44.09;100773.25;6219068;23;20385;-72
2022/04/27 06:17:42;;;;;;;19.73;7.40;;;;;;;37.62;44.58;100780.34;6218864;23;20394;-72
2022/04/27 06:20:09;;;;;;;27.73;10.60;;;;;;;37.78;44.74;100786.19;6218693;23;20449;-72
2022/04/27 06:22:36;;;;;;;14.57;7.43;;;;;;;37.85;43.91;100791.22;6218672;23;20393;-71
2022/04/27 06:25:04;;;;;;;24.20;10.83;;;;;;;37.79;44.07;100797.81;6218743;23;20378;-72
2022/04/27 06:27:30;;;;;;;18.80;8.47;;;;;;;37.70;44.32;100795.06;6218623;23;20379;-71
2022/04/27 06:29:57;;;;;;;18.13;7.17;;;;;;;37.69;43.72;100795.34;6218783;23;20406;-73
2022/04/27 06:32:23;;;;;;;20.20;8.00;;;;;;;37.60;44.33;100804.22;6245636;23;20355;-73
2022/04/27 06:34:53;;;;;;;28.30;11.97;;;;;;;37.45;44.07;100809.19;6218369;23;20792;-73
2022/04/27 06:37:19;;;;;;;21.07;10.30;;;;;;;37.61;43.62;100813.91;6217522;23;20455;-70
2022/04/27 06:39:45;;;;;;;22.50;8.47;;;;;;;37.78;43.38;100832.22;6192673;23;20430;-73
2022/04/27 06:42:11;;;;;;;18.73;8.77;;;;;;;37.72;44.00;100843.47;6218670;23;20393;-71
2022/04/27 06:44:38;;;;;;;15.60;9.00;;;;;;;37.74;44.11;100838.56;6218688;23;20468;-72
2022/04/27 06:47:04;;;;;;;25.57;11.47;;;;;;;37.60;44.20;100841.28;6218626;23;20387;-70
2022/04/27 06:49:30;;;;;;;16.53;7.27;;;;;;;37.61;44.44;100848.31;6218462;23;20402;-68
2022/04/27 06:51:56;;;;;;;36.50;10.90;;;;;;;37.64;44.08;100851.22;6218251;23;20382;-71
2022/04/27 06:54:23;;;;;;;22.50;7.40;;;;;;;37.82;43.86;100843.28;6218154;23;20406;-71
2022/04/27 06:56:49;;;;;;;16.63;7.50;;;;;;;37.76;44.18;100852.59;6218302;23;20438;-71
2022/04/27 06:59:15;;;;;;;26.10;9.30;;;;;;;37.71;43.97;100850.00;6217781;23;20437;-71
2022/04/27 07:01:41;;;;;;;19.83;7.87;;;;;;;37.56;43.94;100845.72;6218262;23;20390;-70
2022/04/27 07:04:09;;;;;;;19.00;7.53;;;;;;;37.60;43.92;100842.09;6218122;23;20532;-71
2022/04/27 07:06:36;;;;;;;22.73;10.80;;;;;;;37.77;44.03;100846.88;6218081;23;20402;-71
2022/04/27 07:09:02;;;;;;;21.80;7.60;;;;;;;37.74;43.72;100849.38;6218305;23;21034;-72
2022/04/27 07:11:28;;;;;;;21.00;7.90;;;;;;;37.79;44.09;100854.69;6245604;23;20394;-71
2022/04/27 07:13:55;;;;;;;21.30;8.50;;;;;;;37.63;43.88;100854.25;6217680;23;20913;-73
2022/04/27 07:16:21;;;;;;;23.83;7.90;;;;;;;37.57;43.75;100861.66;6217998;23;20382;-72
2022/04/27 07:18:50;;;;;;;15.13;9.00;;;;;;;37.65;43.60;100869.06;6218285;23;20387;-71
2022/04/27 07:21:16;;;;;;;33.10;9.80;;;;;;;37.72;43.38;100865.94;6217903;23;20419;-71
2022/04/27 07:23:42;;;;;;;18.97;6.80;;;;;;;37.63;44.03;100873.19;6218278;23;20382;-72
2022/04/27 07:26:08;;;;;;;17.03;6.27;;;;;;;37.84;44.21;100873.56;6217696;23;20382;-70
2022/04/27 07:28:38;;;;;;;29.03;12.73;;;;;;;37.82;43.82;100881.19;6217326;23;20490;-74
2022/04/27 07:31:08;;;;;;;22.77;8.80;;;;;;;37.61;43.65;100884.28;6218208;23;20371;-72
2022/04/27 07:33:35;;;;;;;18.67;7.10;;;;;;;37.73;43.75;100889.19;6244151;23;20355;-73
2022/04/27 07:36:01;;;;;;;23.37;9.70;;;;;;;37.91;43.47;100895.59;6216822;23;20413;-73
2022/04/27 07:38:27;;;;;;;23.50;10.70;;;;;;;37.96;43.03;100902.81;6216962;23;20871;-73
2022/04/27 07:40:53;;;;;;;19.07;10.10;;;;;;;37.83;43.35;100899.03;6216732;23;20461;-73
2022/04/27 07:43:20;;;;;;;22.37;8.20;;;;;;;37.90;43.56;100902.13;6217667;23;20742;-72
2022/04/27 07:45:46;;;;;;;14.60;6.20;;;;;;;37.74;43.31;100903.53;6218003;23;20791;-73
2022/04/27 07:48:12;;;;;;;18.20;9.60;;;;;;;37.81;42.69;100906.63;6245159;23;20366;-74
2022/04/27 07:50:40;;;;;;;17.97;7.57;;;;;;;38.06;42.24;100903.38;6217697;23;20398;-72
2022/04/27 07:53:07;;;;;;;21.33;8.30;;;;;;;37.88;42.78;100907.06;6244767;23;20354;-73
2022/04/27 07:55:33;;;;;;;20.73;7.70;;;;;;;37.62;42.83;100904.03;6257164;22;20437;-78
2022/04/27 07:58:00;;;;;;;23.80;8.50;;;;;;;37.95;42.40;100914.75;6223235;22;20437;-72
2022/04/27 08:00:26;;;;;;;17.33;7.90;;;;;;;37.98;42.50;100914.13;6248161;22;20502;-75
2022/04/27 08:02:52;;;;;;;23.97;9.27;;;;;;;37.89;42.43;100917.56;6275503;22;20353;-76
2022/04/27 08:05:18;;;;;;;18.73;7.53;;;;;;;37.95;42.24;100917.47;6247014;22;20382;-75
2022/04/27 08:07:48;;;;;;;25.83;11.00;;;;;;;37.94;43.00;100935.63;6245348;22;20857;-73
2022/04/27 08:10:16;;;;;;;20.93;8.07;;;;;;;37.98;42.81;100933.09;6246012;22;20365;-73
2022/04/27 08:12:46;;;;;;;13.77;6.97;;;;;;;38.06;42.88;100937.78;6221594;22;20420;-73
2022/04/27 08:15:17;;;;;;;15.67;6.00;;;;;;;38.10;42.60;100944.19;6246980;22;20384;-74
2022/04/27 08:17:51;;;;;;;18.23;8.40;;;;;;;38.15;42.36;100944.09;6247896;22;20404;-74
2022/04/27 08:23:07;;;;;;;20.97;9.23;;;;;;;38.04;42.58;100948.91;6275335;22;20397;-73
2022/04/27 08:25:35;;;;;;;22.97;8.27;;;;;;;38.09;42.70;100948.00;6273356;22;20408;-73
2022/04/27 08:28:05;;;;;;;27.20;8.10;;;;;;;37.99;43.12;100953.63;6246072;22;20446;-73
2022/04/27 08:30:33;;;;;;;24.10;10.03;;;;;;;38.07;43.45;100961.88;6245830;22;20370;-77
2022/04/27 08:33:00;;;;;;;25.57;8.03;;;;;;;37.78;43.83;100958.66;6246003;22;20461;-74
2022/04/27 08:35:31;;;;;;;18.33;7.50;;;;;;;37.80;42.99;100961.88;6245949;22;20385;-74
2022/04/27 08:37:58;;;;;;;15.87;8.60;;;;;;;37.83;43.48;100964.00;6245748;22;20382;-74
2022/04/27 08:40:25;;;;;;;27.47;10.60;;;;;;;37.95;43.65;100958.09;6247450;22;20428;-73
2022/04/27 08:42:53;;;;;;;16.23;8.90;;;;;;;37.70;43.76;100967.50;6275042;22;20350;-74
2022/04/27 08:45:20;;;;;;;37.17;10.40;;;;;;;37.97;43.69;100969.41;6248015;22;20865;-75
2022/04/27 08:47:47;;;;;;;28.73;9.50;;;;;;;38.14;42.89;100956.03;6247647;22;20382;-73
2022/04/27 08:50:22;;;;;;;20.73;7.67;;;;;;;37.68;43.83;100958.88;6247208;22;20386;-72
2022/04/27 08:52:49;;;;;;;24.27;9.90;;;;;;;38.03;43.71;100962.78;6248001;22;20786;-71
2022/04/27 08:55:17;;;;;;;22.20;8.67;;;;;;;37.78;43.38;100958.66;6247569;22;20532;-77
2022/04/27 08:57:44;;;;;;;15.90;7.20;;;;;;;37.90;43.04;100967.09;6275253;22;20442;-72
2022/04/27 09:00:15;;;;;;;21.30;7.87;;;;;;;37.87;44.10;100962.28;6221713;22;20417;-71
2022/04/27 09:02:42;;;;;;;25.83;8.90;;;;;;;37.98;43.21;100955.56;6221355;22;20373;-71
2022/04/27 09:05:16;;;;;;;26.67;10.33;;;;;;;37.94;43.58;100965.41;6246103;22;20862;-72
2022/04/27 09:07:43;;;;;;;15.77;5.90;;;;;;;38.00;42.80;100950.66;6273378;22;20807;-72
2022/04/27 09:10:17;;;;;;;22.37;6.80;;;;;;;38.03;42.56;100955.44;6246137;22;20495;-72
2022/04/27 09:12:50;;;;;;;24.03;8.43;;;;;;;37.87;43.77;100962.28;6273331;22;20403;-70
2022/04/27 09:15:21;;;;;;;19.77;6.87;;;;;;;38.05;42.99;100950.50;6246323;22;20411;-69
2022/04/27 09:20:52;;;;;;;15.90;8.03;;;;;;;37.99;42.94;100956.34;6274588;22;20459;-71
2022/04/27 09:23:38;;;;;;;19.63;8.00;;;;;;;38.20;42.93;100945.88;6247866;22;20473;-70
2022/04/27 09:26:19;;;;;;;18.90;8.77;;;;;;;38.25;42.76;100934.94;6247759;22;20385;-70
2022/04/27 09:28:50;;;;;;;20.90;7.80;;;;;;;38.10;42.45;100942.28;6247766;22;20386;-69
2022/04/27 09:31:30;;;;;;;21.10;8.50;;;;;;;38.15;42.75;100931.34;6222723;22;20850;-72
2022/04/27 09:34:01;;;;;;;20.13;7.93;;;;;;;38.41;42.54;100934.28;6247882;22;20412;-72
2022/04/27 09:36:28;;;;;;;29.20;7.77;;;;;;;38.21;42.58;100923.09;6248450;22;20897;-71
2022/04/27 09:38:56;;;;;;;17.63;6.43;;;;;;;38.16;42.71;100913.16;6247598;22;20472;-69
2022/04/27 09:41:41;;;;;;;33.43;8.27;;;;;;;38.15;42.84;100912.38;6222724;22;20909;-69
2022/04/27 09:44:10;;;;;;;17.20;7.13;;;;;;;38.17;42.68;100903.94;6222818;22;20439;-69
2022/04/27 09:46:41;;;;;;;31.13;10.30;;;;;;;37.88;43.81;100902.44;6222973;22;20417;-70
2022/04/27 09:49:09;;;;;;;21.53;8.40;;;;;;;38.18;43.18;100906.34;6247605;22;20738;-71
2022/04/27 09:51:36;;;;;;;13.73;6.83;;;;;;;38.07;43.04;100906.91;6247952;22;20393;-71
2022/04/27 09:54:03;;;;;;;20.30;7.83;;;;;;;38.15;42.50;100909.66;6274713;22;20421;-70
2022/04/27 09:56:37;;;;;;;20.53;8.40;;;;;;;38.06;42.63;100900.69;6223317;23;20430;-70
2022/04/27 09:59:07;;;;;;;21.07;9.00;;;;;;;38.11;42.62;100907.88;6193457;23;20418;-72
2022/04/27 10:01:35;;;;;;;23.50;7.40;;;;;;;38.09;42.99;100908.19;6217092;23;20450;-70
2022/04/27 10:04:05;;;;;;;20.97;8.93;;;;;;;38.00;42.60;100906.50;6243926;23;20433;-70
2022/04/27 10:06:32;;;;;;;23.67;7.90;;;;;;;38.14;42.89;100908.06;6167813;23;20382;-70
2022/04/27 10:09:00;;;;;;;31.63;11.40;;;;;;;37.96;43.24;100924.47;6216752;23;20410;-70
2022/04/27 10:11:28;;;;;;;24.20;9.33;;;;;;;38.37;43.20;100929.78;6217085;23;20386;-70
2022/04/27 10:13:56;;;;;;;15.70;7.93;;;;;;;38.29;42.42;100922.38;6217287;23;20383;-70
2022/04/27 10:16:24;;;;;;;17.70;8.57;;;;;;;38.03;43.61;100939.19;6217010;23;20780;-69
2022/04/27 10:18:54;;;;;;;23.90;7.10;;;;;;;38.39;42.78;100936.50;6192232;23;20378;-70
2022/04/27 10:21:43;;;;;;;17.83;8.73;;;;;;;38.56;42.21;100937.75;6217150;23;20374;-69
2022/04/27 10:24:11;;;;;;;19.03;6.33;;;;;;;38.45;42.44;100937.19;6217153;23;20440;-70
2022/04/27 10:26:38;;;;;;;23.50;7.90;;;;;;;38.59;42.47;100932.47;6217132;23;20466;-69
2022/04/27 10:29:06;;;;;;;21.10;8.00;;;;;;;38.47;41.94;100936.88;6217011;23;20392;-69
2022/04/27 10:31:48;;;;;;;19.17;7.40;;;;;;;38.57;41.83;100918.44;6217045;23;20393;-71
2022/04/27 10:34:21;;;;;;;17.00;7.13;;;;;;;38.57;41.85;100923.88;6245337;23;20408;-73
2022/04/27 10:36:48;;;;;;;13.90;6.63;;;;;;;38.69;42.08;100921.41;6218720;23;20431;-70
2022/04/27 10:39:15;;;;;;;23.67;9.17;;;;;;;38.54;42.65;100927.19;6218787;23;20426;-71
2022/04/27 10:41:48;;;;;;;16.33;6.17;;;;;;;38.66;42.02;100924.72;6218676;23;20464;-70
2022/04/27 10:44:14;;;;;;;21.77;11.40;;;;;;;38.56;42.07;100916.84;6218703;23;20393;-69
2022/04/27 10:46:44;;;;;;;23.23;8.43;;;;;;;38.73;42.24;100916.16;6245808;23;20374;-70
2022/04/27 10:49:30;;;;;;;15.77;7.10;;;;;;;38.57;42.26;100915.75;6218867;23;20375;-73
2022/04/27 10:52:01;;;;;;;27.47;6.73;;;;;;;38.63;41.83;100902.84;6218292;23;20392;-73
2022/04/27 10:54:31;;;;;;;19.20;7.90;;;;;;;38.49;42.30;100911.06;6218463;23;20405;-71
2022/04/27 10:57:29;;;;;;;14.90;8.57;;;;;;;38.50;42.34;100909.16;6194111;23;20838;-70
2022/04/27 11:00:03;;;;;;;16.40;6.90;;;;;;;38.59;41.96;100910.00;6191296;23;20462;-73
2022/04/27 11:02:41;;;;;;;14.07;8.37;;;;;;;38.62;42.04;100902.06;6218672;23;20501;-72
2022/04/27 11:05:11;;;;;;;31.00;8.17;;;;;;;38.60;42.71;100903.47;6218457;23;20384;-71
2022/04/27 11:07:45;;;;;;;23.80;9.63;;;;;;;38.69;42.20;100894.28;6218405;23;20424;-72
2022/04/27 11:10:21;;;;;;;29.70;11.90;;;;;;;38.72;42.44;100892.09;6218253;23;20373;-73
2022/04/27 11:12:49;;;;;;;22.30;8.50;;;;;;;38.54;42.36;100904.69;6217675;23;20389;-74
2022/04/27 11:15:24;;;;;;;22.87;8.80;;;;;;;38.51;41.82;100906.13;6218217;23;20938;-71
2022/04/27 11:18:01;;;;;;;21.57;9.87;;;;;;;38.59;42.09;100896.44;6218097;23;20543;-71
2022/04/27 11:20:36;;;;;;;17.93;8.40;;;;;;;38.91;41.35;100890.75;6218744;23;20441;-71
2022/04/27 11:23:07;;;;;;;23.53;9.10;;;;;;;38.88;41.77;100893.28;6218229;23;20410;-71
2022/04/27 11:25:38;;;;;;;20.00;7.50;;;;;;;38.82;41.43;100889.91;6245277;23;20354;-71
2022/04/27 11:28:06;;;;;;;18.13;7.90;;;;;;;38.69;42.30;100885.34;6218330;23;20406;-71
2022/04/27 11:30:33;;;;;;;21.57;9.23;;;;;;;38.92;42.09;100883.44;6244753;23;20456;-71
2022/04/27 11:33:01;;;;;;;14.77;7.37;;;;;;;39.08;41.38;100881.09;6217585;23;20390;-72
2022/04/27 11:35:39;;;;;;;11.53;6.50;;;;;;;38.94;41.96;100878.47;6217977;23;20973;-72
2022/04/27 11:38:06;;;;;;;20.87;9.33;;;;;;;38.92;42.00;100881.50;6244955;23;20437;-70